Airfield :
LOGIN :

Register | Disclaimer

   EN    FR    IT 

 










Legend :    VFR   Marginal VFR   IFR   Intensive IFR   Very Intensive IFR
Visi :
Ceiling :
>= 8 km
>= 3000ft
5 to 8 km
1000 to 3000 ft
1500m to 5 km
500 to 1000 ft
800 to 1500m
200 to 500 ft
< 800m
< 200 ft
Symbols :   Thunderstorms  Fog  Heavy snow  Heavy precipitations  Wind > 20 kt
SIGMETs :     Misc.  Thunderstorms  Icing  Turbulence  Mountain Waves  Volcanic Ashes






- Airport Elevation : 0 ft


ETEB - Ansbach Army Heliport

CURRENT METAR :
  • 151956Z AUTO 28004KT 9999 OVC060 04/03 A2960 RMK AO2 SLP051 T00410029 $

EXPIRED METARs :
  • 151856Z AUTO 29004KT 9999 FEW060 SCT070 04/02 A2962 RMK AO2 SLP060 T00430018 $
  • 151756Z AUTO 24004KT 9999 FEW080 04/02 A2964 RMK AO2 SLP067 T00420022 10063 20038 52020 $

TAF TAF ETEB
Valid from the 15 at 16:00 until the 16 at 20:00 UTC


151606Z 1516/1620 30006KT 9999 OVC090 620902 QNH2959INS
BECMG 1520/1521 28006KT 5000 -SHRA FEW004 BKN008 610406 QNH2966INS
BECMG 1605/1606 VRB06KT 9999 NSW BKN050 QNH2971INS
BECMG 1619/1620 09006KT 8000 BR OVC010 QNH2989INS TX06/1514Z TN02/1606Z LAST NO AMDS AFT 15/17Z NEXT 17/21Z



MET'MAP, your aeronautical weather chart ! - Copyright ORBIFLY December 2007 - Disclaimer

ORBIFLY MET'MAP TEAM :

Programming & Development : Alexandra Zaïnal
Concept & Development : Baudouin d'Aumeries
Co-Development & Prog : Marc-Olivier Méhu
Technical & hardware support : Manuel Goepfert

Contact : metmap@orbifly.com




SOURCES & CREDITS :

   NOAA